Aérodrome :
LOGIN :

S'inscrire | Disclaimer

   EN    FR    IT 

 










Légende :    VFR   VFR Marginal   IFR   IFR Intensif   IFR Très Intensif
Visi : 
Plafond : 
>= 8 km
>= 3000ft
5 à 8 km
1000 à 3000 ft
1500m à 5 km
500 à 1000 ft
800 à 1500m
200 à 500 ft
< 800m
< 200 ft
Symboles :   Orages  Brouillard  Fortes neiges  Fortes précipitations  Vent > 20 kt
SIGMETs :   Divers  Orages  Givrage  Turbulence  Onde Orograph.  Cendres Volcan.






- Altitude de l'aérodrome : 408 ft
- Code IATA : FKB


EDSB - Karlsruhe Baden Baden

DERNIER METAR :
  • 102120Z 01003KT CAVOK 25/16 Q1013

METARs EXPIRÉS :
  • 102050Z 04004KT CAVOK 26/17 Q1013
  • 102020Z 05004KT CAVOK 26/16 Q1013
  • 101950Z 05004KT CAVOK 27/17 Q1012
  • 101920Z 04004KT CAVOK 29/17 Q1012
  • 101850Z 02003KT CAVOK 29/17 Q1012

TAF TAF EDSB
Valide du 10 à 18h jusqu'au 11 à 18h UTC


101700Z 1018/1118 01006KT CAVOK
PROB30
TEMPO 1112/1118 -TSRA SCT070CB



MET'MAP, la Météo Aéronautique d'un coup d'oeil ! - Copyright ORBIFLY Décembre 2007 - Disclaimer

ORBIFLY MET'MAP TEAM :

Programmation & Développement : Alexandra Zaïnal
Sur une idée originale de : Baudouin d'Aumeries
Assistance à la programmation : Marc-Olivier Méhu
Soutien technique & logistique : Manuel Goepfert

Contact : metmap@orbifly.com




SOURCES & CREDITS :

   NOAA